createdAt,value
2018-10-18T00:00:54.644Z,19.74
2018-10-18T00:01:55.130Z,19.71
2018-10-18T00:02:54.794Z,19.74
2018-10-18T00:03:55.913Z,19.74
2018-10-18T00:04:54.957Z,19.71
2018-10-18T00:05:54.907Z,19.74
2018-10-18T00:06:55.382Z,19.72
2018-10-18T00:07:55.539Z,19.73
2018-10-18T00:08:54.819Z,19.72
2018-10-18T00:09:54.825Z,19.71
2018-10-18T00:10:54.907Z,19.74
2018-10-18T00:11:54.909Z,19.73
2018-10-18T00:12:54.591Z,19.74
2018-10-18T00:13:54.908Z,19.71
2018-10-18T00:14:54.736Z,19.72
2018-10-18T00:15:54.796Z,19.75
2018-10-18T00:16:54.798Z,19.75
2018-10-18T00:17:55.082Z,19.71
2018-10-18T00:18:54.944Z,19.72
2018-10-18T00:19:55.155Z,19.7
2018-10-18T00:20:54.585Z,19.71
2018-10-18T00:21:54.699Z,19.73
2018-10-18T00:22:54.748Z,19.72
2018-10-18T00:23:55.209Z,19.71
2018-10-18T00:24:54.724Z,19.72
2018-10-18T00:25:55.045Z,19.71
2018-10-18T00:26:54.732Z,19.7
2018-10-18T00:27:54.704Z,19.71
2018-10-18T00:28:54.713Z,19.71
2018-10-18T00:29:56.410Z,19.72
2018-10-18T00:30:54.931Z,19.7
2018-10-18T00:31:55.188Z,19.71
2018-10-18T00:32:54.755Z,19.71
2018-10-18T00:33:54.794Z,19.72
2018-10-18T00:34:55.882Z,19.72
2018-10-18T00:35:55.021Z,19.7
2018-10-18T00:36:54.754Z,19.71
2018-10-18T00:37:55.010Z,19.71
2018-10-18T00:38:54.730Z,19.69
2018-10-18T00:39:54.729Z,19.7
2018-10-18T00:40:54.687Z,19.7
2018-10-18T00:41:55.143Z,19.69
2018-10-18T00:42:54.576Z,19.69
2018-10-18T00:43:54.897Z,19.7
2018-10-18T00:44:54.771Z,19.7
2018-10-18T00:45:54.636Z,19.7
2018-10-18T00:46:54.707Z,19.7
2018-10-18T00:47:55.259Z,19.68
2018-10-18T00:48:54.748Z,19.7
2018-10-18T00:49:55.058Z,19.69
2018-10-18T00:50:54.851Z,19.69
2018-10-18T00:51:54.770Z,19.69
2018-10-18T00:52:54.985Z,19.7
2018-10-18T00:53:54.897Z,19.7
2018-10-18T00:54:54.998Z,19.69
2018-10-18T00:55:54.863Z,19.68
2018-10-18T00:56:54.729Z,19.71
2018-10-18T00:57:55.895Z,19.7
2018-10-18T00:58:54.967Z,19.69
2018-10-18T00:59:54.881Z,19.68
2018-10-18T01:00:54.756Z,19.7
2018-10-18T01:01:54.800Z,19.71
2018-10-18T01:02:54.767Z,19.69
2018-10-18T01:03:54.794Z,19.69
2018-10-18T01:04:54.645Z,19.68
2018-10-18T01:05:54.906Z,19.67
2018-10-18T01:06:54.746Z,19.69
2018-10-18T01:07:54.801Z,19.67
2018-10-18T01:08:54.707Z,19.68
2018-10-18T01:09:54.897Z,19.69
2018-10-18T01:10:54.752Z,19.69
2018-10-18T01:11:55.660Z,19.68
2018-10-18T01:12:54.901Z,19.68
2018-10-18T01:13:55.358Z,19.68
2018-10-18T01:14:54.735Z,19.68
2018-10-18T01:15:54.657Z,19.67
2018-10-18T01:16:54.654Z,19.66
2018-10-18T01:17:54.973Z,19.66
2018-10-18T01:18:54.679Z,19.68
2018-10-18T01:19:54.994Z,19.68
2018-10-18T01:20:54.633Z,19.67
2018-10-18T01:21:54.491Z,19.68
2018-10-18T01:22:54.641Z,19.68
2018-10-18T01:23:55.134Z,19.68
2018-10-18T01:24:54.564Z,19.69
2018-10-18T01:25:55.063Z,19.67
2018-10-18T01:26:54.576Z,19.67
2018-10-18T01:27:54.725Z,19.68
2018-10-18T01:28:55.240Z,19.68
2018-10-18T01:29:55.210Z,19.67
2018-10-18T01:30:54.747Z,19.66
2018-10-18T01:31:55.088Z,19.67
2018-10-18T01:32:54.741Z,19.67
2018-10-18T01:33:54.671Z,19.67
2018-10-18T01:34:54.631Z,19.63
2018-10-18T01:35:54.973Z,19.66
2018-10-18T01:36:55.092Z,19.65
2018-10-18T01:37:55.190Z,19.66
2018-10-18T01:38:54.537Z,19.65
2018-10-18T01:39:54.636Z,19.66
2018-10-18T01:40:54.632Z,19.66
2018-10-18T01:41:55.135Z,19.67
2018-10-18T01:42:54.771Z,19.67
2018-10-18T01:43:55.215Z,19.63
2018-10-18T01:44:54.604Z,19.67
2018-10-18T01:45:54.732Z,19.66
2018-10-18T01:46:54.778Z,19.65
2018-10-18T01:47:55.471Z,19.67
2018-10-18T01:48:54.652Z,19.67
2018-10-18T01:49:54.802Z,19.63
2018-10-18T01:50:55.029Z,19.62
2018-10-18T01:51:54.609Z,19.62
2018-10-18T01:52:54.658Z,19.66
2018-10-18T01:53:54.801Z,19.63
2018-10-18T01:54:54.731Z,19.63
2018-10-18T01:55:55.172Z,19.63
2018-10-18T01:56:54.580Z,19.65
2018-10-18T01:57:54.607Z,19.66
2018-10-18T01:58:54.597Z,19.65
2018-10-18T01:59:56.251Z,19.63
2018-10-18T02:00:54.627Z,19.62
2018-10-18T02:01:55.105Z,19.65
2018-10-18T02:02:54.674Z,19.62
2018-10-18T02:03:54.580Z,19.63
2018-10-18T02:04:54.655Z,19.65
2018-10-18T02:05:55.195Z,19.62
2018-10-18T02:06:54.546Z,19.63
2018-10-18T02:07:54.964Z,19.62
2018-10-18T02:08:55.112Z,19.65
2018-10-18T02:09:54.815Z,19.65
2018-10-18T02:10:54.824Z,19.63
2018-10-18T02:11:54.938Z,19.63
2018-10-18T02:12:54.651Z,19.63
2018-10-18T02:13:54.537Z,19.65
2018-10-18T02:14:55.035Z,19.63
2018-10-18T02:15:54.806Z,19.63
2018-10-18T02:16:54.561Z,19.61
2018-10-18T02:17:55.423Z,19.6
2018-10-18T02:18:54.996Z,19.63
2018-10-18T02:19:54.729Z,19.62
2018-10-18T02:20:54.709Z,19.6
2018-10-18T02:21:54.675Z,19.62
2018-10-18T02:22:54.623Z,19.61
2018-10-18T02:23:54.818Z,19.59
2018-10-18T02:24:54.933Z,19.62
2018-10-18T02:25:54.655Z,19.63
2018-10-18T02:26:54.652Z,19.61
2018-10-18T02:27:54.620Z,19.62
2018-10-18T02:28:54.723Z,19.63
2018-10-18T02:29:55.463Z,19.62
2018-10-18T02:30:54.673Z,19.62
2018-10-18T02:31:54.743Z,19.62
2018-10-18T02:32:54.630Z,19.61
2018-10-18T02:33:54.598Z,19.62
2018-10-18T02:34:55.096Z,19.61
2018-10-18T02:35:55.248Z,19.61
2018-10-18T02:36:54.684Z,19.62
2018-10-18T02:37:54.726Z,19.63
2018-10-18T02:38:54.671Z,19.63
2018-10-18T02:39:54.491Z,19.62
2018-10-18T02:40:54.627Z,19.62
2018-10-18T02:41:55.162Z,19.59
2018-10-18T02:42:54.876Z,19.62
2018-10-18T02:43:54.944Z,19.62
2018-10-18T02:44:54.719Z,19.61
2018-10-18T02:45:54.687Z,19.66
2018-10-18T02:46:54.851Z,19.6
2018-10-18T02:47:55.817Z,19.62
2018-10-18T02:48:54.610Z,19.61
2018-10-18T02:49:54.919Z,19.6
2018-10-18T02:50:54.722Z,19.62
2018-10-18T02:51:54.776Z,19.65
2018-10-18T02:52:54.509Z,19.6
2018-10-18T02:53:54.779Z,19.6
2018-10-18T02:54:54.901Z,19.61
2018-10-18T02:55:54.880Z,19.61
2018-10-18T02:56:55.027Z,19.61
2018-10-18T02:57:54.618Z,19.62
2018-10-18T02:58:54.879Z,19.6
2018-10-18T02:59:54.907Z,19.61
2018-10-18T03:00:54.538Z,19.6
2018-10-18T03:01:54.746Z,19.59
2018-10-18T03:02:54.861Z,19.59
2018-10-18T03:03:54.760Z,19.62
2018-10-18T03:04:54.706Z,19.6
2018-10-18T03:05:55.033Z,19.59
2018-10-18T03:06:54.633Z,19.62
2018-10-18T03:07:54.605Z,19.61
2018-10-18T03:08:54.880Z,19.61
2018-10-18T03:09:54.840Z,19.62
2018-10-18T03:10:54.559Z,19.61
2018-10-18T03:11:55.124Z,19.6
2018-10-18T03:12:55.072Z,19.62
2018-10-18T03:13:54.628Z,19.61
2018-10-18T03:14:54.798Z,19.6
2018-10-18T03:15:55.410Z,19.6
2018-10-18T03:16:54.685Z,19.59
2018-10-18T03:17:55.090Z,19.59
2018-10-18T03:18:54.488Z,19.6
2018-10-18T03:19:54.611Z,19.6
2018-10-18T03:20:54.609Z,19.59
2018-10-18T03:21:54.580Z,19.61
2018-10-18T03:22:54.786Z,19.59
2018-10-18T03:23:55.154Z,19.59
2018-10-18T03:24:54.758Z,19.62
2018-10-18T03:25:54.730Z,19.6
2018-10-18T03:26:54.622Z,19.59
2018-10-18T03:27:54.706Z,19.6
2018-10-18T03:28:54.972Z,19.6
2018-10-18T03:29:54.865Z,19.59
2018-10-18T03:30:54.808Z,19.61
2018-10-18T03:31:54.789Z,19.59
2018-10-18T03:32:54.664Z,19.58
2018-10-18T03:33:54.766Z,19.61
2018-10-18T03:34:54.655Z,19.6
2018-10-18T03:35:54.911Z,19.6
2018-10-18T03:36:54.804Z,19.6
2018-10-18T03:37:54.628Z,19.61
2018-10-18T03:38:55.012Z,19.59
2018-10-18T03:39:54.603Z,19.6
2018-10-18T03:40:54.665Z,19.58
2018-10-18T03:41:55.169Z,19.61
2018-10-18T03:42:54.872Z,19.58
2018-10-18T03:43:54.638Z,19.59
2018-10-18T03:44:54.574Z,19.59
2018-10-18T03:45:54.690Z,19.59
2018-10-18T03:46:54.944Z,19.58
2018-10-18T03:47:55.109Z,19.58
2018-10-18T03:48:54.670Z,19.59
2018-10-18T03:49:54.634Z,19.59
2018-10-18T03:50:54.776Z,19.58
2018-10-18T03:51:54.672Z,19.59
2018-10-18T03:52:54.954Z,19.58
2018-10-18T03:53:54.849Z,19.59
2018-10-18T03:54:54.563Z,19.59
2018-10-18T03:55:54.720Z,19.59
2018-10-18T03:56:54.787Z,19.59
2018-10-18T03:57:54.730Z,19.58
2018-10-18T03:58:54.621Z,19.57
2018-10-18T03:59:55.078Z,19.59
2018-10-18T04:00:54.980Z,19.58
2018-10-18T04:01:54.516Z,19.57
2018-10-18T04:02:54.566Z,19.56
2018-10-18T04:03:54.917Z,19.57
2018-10-18T04:04:54.642Z,19.57
2018-10-18T04:05:55.041Z,19.59
2018-10-18T04:06:54.758Z,19.57
2018-10-18T04:07:54.945Z,19.57
2018-10-18T04:08:54.768Z,19.59
2018-10-18T04:09:54.574Z,19.57
2018-10-18T04:10:54.763Z,19.58
2018-10-18T04:11:54.894Z,19.56
2018-10-18T04:12:56.037Z,19.56
2018-10-18T04:13:54.701Z,19.56
2018-10-18T04:14:54.566Z,19.55
2018-10-18T04:15:54.774Z,19.58
2018-10-18T04:16:54.604Z,19.56
2018-10-18T04:17:55.201Z,19.57
2018-10-18T04:18:54.924Z,19.56
2018-10-18T04:19:54.789Z,19.56
2018-10-18T04:20:54.727Z,19.56
2018-10-18T04:21:54.930Z,19.56
2018-10-18T04:22:54.619Z,19.56
2018-10-18T04:23:54.976Z,19.56
2018-10-18T04:24:54.674Z,19.56
2018-10-18T04:25:55.017Z,19.56
2018-10-18T04:26:55.026Z,19.59
2018-10-18T04:27:54.892Z,19.58
2018-10-18T04:28:54.608Z,19.57
2018-10-18T04:29:54.940Z,19.58
2018-10-18T04:30:54.625Z,19.57
2018-10-18T04:31:55.016Z,19.57
2018-10-18T04:32:54.757Z,19.57
2018-10-18T04:33:54.622Z,19.56
2018-10-18T04:34:54.632Z,19.56
2018-10-18T04:35:55.085Z,19.57
2018-10-18T04:36:54.717Z,19.56
2018-10-18T04:37:54.851Z,19.55
2018-10-18T04:38:54.553Z,19.55
2018-10-18T04:39:54.657Z,19.57
2018-10-18T04:40:54.792Z,19.56
2018-10-18T04:41:54.810Z,19.56
2018-10-18T04:42:54.546Z,19.56
2018-10-18T04:43:54.513Z,19.57
2018-10-18T04:44:54.597Z,19.57
2018-10-18T04:45:54.687Z,19.57
2018-10-18T04:46:54.681Z,19.58
2018-10-18T04:47:55.683Z,19.58
2018-10-18T04:48:55.592Z,19.59
2018-10-18T04:49:54.593Z,19.58
2018-10-18T04:50:54.607Z,19.55
2018-10-18T04:51:54.615Z,19.58
2018-10-18T04:52:54.698Z,19.58
2018-10-18T04:53:54.951Z,19.57
2018-10-18T04:54:54.734Z,19.57
2018-10-18T04:55:54.638Z,19.55
2018-10-18T04:56:55.679Z,19.56
2018-10-18T04:57:54.593Z,19.58
2018-10-18T04:58:54.797Z,19.59
2018-10-18T04:59:54.824Z,19.57
2018-10-18T05:00:55.022Z,19.57
2018-10-18T05:01:54.683Z,19.58
2018-10-18T05:02:54.626Z,19.57
2018-10-18T05:03:54.920Z,19.56
2018-10-18T05:04:55.024Z,19.6
2018-10-18T05:05:54.541Z,19.57
2018-10-18T05:06:54.845Z,19.58
2018-10-18T05:07:54.653Z,19.57
2018-10-18T05:08:54.528Z,19.57
2018-10-18T05:09:54.761Z,19.59
2018-10-18T05:10:54.648Z,19.56
2018-10-18T05:11:54.599Z,19.58
2018-10-18T05:12:54.909Z,19.59
2018-10-18T05:13:54.523Z,19.59
2018-10-18T05:14:54.423Z,19.57
2018-10-18T05:15:54.611Z,19.57
2018-10-18T05:16:55.118Z,19.56
2018-10-18T05:17:54.590Z,19.55
2018-10-18T05:18:55.180Z,19.58
2018-10-18T05:19:54.912Z,19.55
2018-10-18T05:20:54.511Z,19.56
2018-10-18T05:21:54.451Z,19.56
2018-10-18T05:22:54.704Z,19.57
2018-10-18T05:23:54.832Z,19.57
2018-10-18T05:24:55.121Z,19.57
2018-10-18T05:25:54.569Z,19.57
2018-10-18T05:26:54.869Z,19.57
2018-10-18T05:27:54.660Z,19.56
2018-10-18T05:28:54.915Z,19.56
2018-10-18T05:29:54.562Z,19.57
2018-10-18T05:30:54.876Z,19.57
2018-10-18T05:31:54.692Z,19.59
2018-10-18T05:32:54.532Z,19.55
2018-10-18T05:33:54.923Z,19.43
2018-10-18T05:34:54.565Z,19.14
2018-10-18T05:35:54.718Z,18.88
2018-10-18T05:36:54.755Z,19.05
2018-10-18T05:37:54.825Z,19.09
2018-10-18T05:38:54.680Z,19.1
2018-10-18T05:39:54.909Z,19.11
2018-10-18T05:40:54.607Z,19.15
2018-10-18T05:41:54.669Z,19.13
2018-10-18T05:42:55.433Z,19.16
2018-10-18T05:43:54.532Z,19.18
2018-10-18T05:44:54.868Z,19.21
2018-10-18T05:45:54.695Z,19.21
2018-10-18T05:46:55.606Z,19.24
2018-10-18T05:47:54.580Z,19.23
2018-10-18T05:48:54.551Z,19.25
2018-10-18T05:49:54.570Z,19.26
2018-10-18T05:50:54.554Z,19.27
2018-10-18T05:51:54.738Z,19.3
2018-10-18T05:52:55.115Z,19.3
2018-10-18T05:53:56.661Z,19.31
2018-10-18T05:54:55.093Z,19.3
2018-10-18T05:55:54.876Z,19.31
2018-10-18T05:56:54.494Z,19.32
2018-10-18T05:57:54.440Z,19.33
2018-10-18T05:58:54.690Z,19.35
2018-10-18T05:59:54.624Z,19.31
2018-10-18T06:00:54.954Z,19.35
2018-10-18T06:01:54.584Z,19.36
2018-10-18T06:02:54.626Z,19.38
2018-10-18T06:03:54.654Z,19.36
2018-10-18T06:04:54.757Z,19.36
2018-10-18T06:05:54.627Z,19.35
2018-10-18T06:06:54.898Z,19.37
2018-10-18T06:07:54.674Z,19.38
2018-10-18T06:08:54.683Z,19.38
2018-10-18T06:09:55.429Z,19.39
2018-10-18T06:10:54.576Z,19.39
2018-10-18T06:11:54.579Z,19.39
2018-10-18T06:12:54.825Z,19.4
2018-10-18T06:13:54.701Z,19.4
2018-10-18T06:14:54.680Z,19.4
2018-10-18T06:15:54.453Z,19.4
2018-10-18T06:16:54.602Z,19.4
2018-10-18T06:17:54.745Z,19.42
2018-10-18T06:18:54.980Z,19.44
2018-10-18T06:19:54.755Z,19.41
2018-10-18T06:20:54.623Z,19.41
2018-10-18T06:21:55.097Z,19.43
2018-10-18T06:22:55.382Z,19.42
2018-10-18T06:23:54.728Z,19.43
2018-10-18T06:24:54.751Z,19.43
2018-10-18T06:25:54.549Z,19.42
2018-10-18T06:26:54.598Z,19.41
2018-10-18T06:27:54.627Z,19.43
2018-10-18T06:28:55.140Z,19.42
2018-10-18T06:29:54.690Z,19.42
2018-10-18T06:30:55.050Z,19.42
2018-10-18T06:31:54.610Z,19.44
2018-10-18T06:32:54.774Z,19.43
2018-10-18T06:33:54.965Z,19.43
2018-10-18T06:34:54.760Z,19.45
2018-10-18T06:35:54.557Z,19.43
2018-10-18T06:36:54.796Z,19.46
2018-10-18T06:37:54.611Z,19.44
2018-10-18T06:38:54.932Z,19.45
2018-10-18T06:39:54.595Z,19.43
2018-10-18T06:40:54.573Z,19.44
2018-10-18T06:41:54.598Z,19.45
2018-10-18T06:42:54.953Z,19.43
2018-10-18T06:43:54.612Z,19.44
2018-10-18T06:44:54.385Z,19.44
2018-10-18T06:45:54.360Z,19.45
2018-10-18T06:46:55.444Z,19.46
2018-10-18T06:47:56.617Z,19.45
2018-10-18T06:48:55.566Z,19.44
2018-10-18T06:49:54.614Z,19.46
2018-10-18T06:50:54.431Z,19.45
2018-10-18T06:51:54.862Z,19.46
2018-10-18T06:52:54.682Z,19.45
2018-10-18T06:53:54.936Z,19.45
2018-10-18T06:54:55.092Z,19.46
2018-10-18T06:55:54.618Z,19.45
2018-10-18T06:56:54.882Z,19.45
2018-10-18T06:57:54.695Z,19.46
2018-10-18T06:58:54.560Z,19.45
2018-10-18T06:59:55.620Z,19.45
2018-10-18T07:00:54.434Z,19.45
2018-10-18T07:01:54.647Z,19.45
2018-10-18T07:02:54.507Z,19.45
2018-10-18T07:03:54.603Z,19.46
2018-10-18T07:04:54.868Z,19.45
2018-10-18T07:05:54.883Z,19.46
2018-10-18T07:06:54.556Z,19.43
2018-10-18T07:07:55.187Z,19.45
2018-10-18T07:08:55.317Z,19.45
2018-10-18T07:09:54.707Z,19.45
2018-10-18T07:10:55.811Z,19.48
2018-10-18T07:11:55.345Z,19.48
2018-10-18T07:12:54.547Z,19.45
2018-10-18T07:13:54.536Z,19.47
2018-10-18T07:14:54.614Z,19.47
2018-10-18T07:15:54.858Z,19.47
2018-10-18T07:16:54.493Z,19.45
2018-10-18T07:17:54.920Z,19.47
2018-10-18T07:18:54.531Z,19.46
2018-10-18T07:19:54.754Z,19.46
2018-10-18T07:20:54.626Z,19.45
2018-10-18T07:21:54.588Z,19.48
2018-10-18T07:22:54.782Z,19.47
2018-10-18T07:23:55.034Z,19.46
2018-10-18T07:24:54.503Z,19.45
2018-10-18T07:25:54.744Z,19.46
2018-10-18T07:26:54.498Z,19.45
2018-10-18T07:27:54.596Z,19.45
2018-10-18T07:28:54.638Z,19.45
2018-10-18T07:29:54.704Z,19.46
2018-10-18T07:30:54.771Z,19.45
2018-10-18T07:31:54.656Z,19.46
2018-10-18T07:32:54.758Z,19.45
2018-10-18T07:33:55.182Z,19.45
2018-10-18T07:34:54.945Z,19.45
2018-10-18T07:35:55.000Z,19.45
2018-10-18T07:36:54.555Z,19.44
2018-10-18T07:37:54.694Z,19.45
2018-10-18T07:38:54.549Z,19.47
2018-10-18T07:39:54.653Z,19.45
2018-10-18T07:40:54.614Z,19.46
2018-10-18T07:41:54.965Z,19.43
2018-10-18T07:42:54.394Z,19.47
2018-10-18T07:43:54.942Z,19.46
2018-10-18T07:44:54.476Z,19.47
2018-10-18T07:45:54.605Z,19.47
2018-10-18T07:46:55.386Z,19.45
2018-10-18T07:47:55.393Z,19.45
2018-10-18T07:48:54.593Z,19.47
2018-10-18T07:49:54.569Z,19.46
2018-10-18T07:50:54.602Z,19.45
2018-10-18T07:51:54.530Z,19.47
2018-10-18T07:52:54.884Z,19.46
2018-10-18T07:53:54.923Z,19.47
2018-10-18T07:54:54.598Z,19.47
2018-10-18T07:55:54.627Z,19.47
2018-10-18T07:56:54.330Z,19.46
2018-10-18T07:57:54.503Z,19.47
2018-10-18T07:58:54.656Z,19.46
2018-10-18T07:59:55.406Z,19.45
2018-10-18T08:00:54.750Z,19.48
2018-10-18T08:01:54.742Z,19.45
2018-10-18T08:02:54.751Z,19.46
2018-10-18T08:03:54.424Z,19.45
2018-10-18T08:04:54.357Z,19.45
2018-10-18T08:05:54.584Z,19.45
2018-10-18T08:06:54.859Z,19.46
2018-10-18T08:07:54.505Z,19.43
2018-10-18T08:08:54.468Z,19.46
2018-10-18T08:09:54.805Z,19.46
2018-10-18T08:10:54.898Z,19.45
2018-10-18T08:11:54.761Z,19.44
2018-10-18T08:12:54.788Z,19.45
2018-10-18T08:13:55.017Z,19.46
2018-10-18T08:14:54.585Z,19.46
2018-10-18T08:15:54.673Z,19.45
2018-10-18T08:16:55.439Z,19.46
2018-10-18T08:17:54.654Z,19.46
2018-10-18T08:18:54.976Z,19.47
2018-10-18T08:19:54.625Z,19.45
2018-10-18T08:20:54.459Z,19.46
2018-10-18T08:21:54.787Z,19.46
2018-10-18T08:22:54.561Z,19.46
2018-10-18T08:23:54.576Z,19.46
2018-10-18T08:24:54.963Z,19.47
2018-10-18T08:25:54.625Z,19.46
2018-10-18T08:26:54.757Z,19.46
2018-10-18T08:27:54.680Z,19.46
2018-10-18T08:28:54.624Z,19.46
2018-10-18T08:29:54.698Z,19.45
2018-10-18T08:30:54.863Z,19.45
2018-10-18T08:31:55.299Z,19.46
2018-10-18T08:32:54.594Z,19.48
2018-10-18T08:33:54.487Z,19.46
2018-10-18T08:34:54.566Z,19.48
2018-10-18T08:35:54.409Z,19.47
2018-10-18T08:36:54.939Z,19.48
2018-10-18T08:37:56.081Z,19.45
2018-10-18T08:38:54.542Z,19.48
2018-10-18T08:39:54.720Z,19.46
2018-10-18T08:40:54.831Z,19.45
2018-10-18T08:41:54.681Z,19.47
2018-10-18T08:42:54.787Z,19.47
2018-10-18T08:43:55.252Z,19.5
2018-10-18T08:44:54.524Z,19.48
2018-10-18T08:45:54.476Z,19.47
2018-10-18T08:46:54.579Z,19.45
2018-10-18T08:47:54.816Z,19.45
2018-10-18T08:48:54.724Z,19.46
2018-10-18T08:49:55.386Z,19.46
2018-10-18T08:50:54.403Z,19.45
2018-10-18T08:51:54.492Z,19.46
2018-10-18T08:52:54.751Z,19.46
2018-10-18T08:53:54.374Z,19.46
2018-10-18T08:54:55.195Z,19.47
2018-10-18T08:55:55.016Z,19.46
2018-10-18T08:56:54.404Z,19.46
2018-10-18T08:57:54.363Z,19.48
2018-10-18T08:58:54.543Z,19.45
2018-10-18T08:59:54.471Z,19.45
2018-10-18T09:00:54.912Z,19.46
2018-10-18T09:01:54.661Z,19.46
2018-10-18T09:02:54.640Z,19.47
2018-10-18T09:03:54.427Z,19.45
2018-10-18T09:04:54.641Z,19.46
2018-10-18T09:05:54.711Z,19.46
2018-10-18T09:06:54.821Z,19.46
2018-10-18T09:07:54.614Z,19.46
2018-10-18T09:08:55.066Z,19.45
2018-10-18T09:09:54.718Z,19.44
2018-10-18T09:10:54.749Z,19.45
2018-10-18T09:11:54.734Z,19.45
2018-10-18T09:12:54.669Z,19.45
2018-10-18T09:13:54.472Z,19.46
2018-10-18T09:14:54.630Z,19.46
2018-10-18T09:15:55.408Z,19.46
2018-10-18T09:16:54.592Z,19.46
2018-10-18T09:17:54.663Z,19.48
2018-10-18T09:18:54.907Z,19.47
2018-10-18T09:19:54.383Z,19.45
2018-10-18T09:20:54.793Z,19.46
2018-10-18T09:21:54.675Z,19.47
2018-10-18T09:22:54.615Z,19.47
2018-10-18T09:23:55.567Z,19.47
2018-10-18T09:24:54.972Z,19.46
2018-10-18T09:25:54.371Z,19.48
2018-10-18T09:26:54.349Z,19.46
2018-10-18T09:27:54.538Z,19.46
2018-10-18T09:28:54.758Z,19.46
2018-10-18T09:29:54.386Z,19.45
2018-10-18T09:30:55.148Z,19.47
2018-10-18T09:31:54.546Z,19.47
2018-10-18T09:32:54.861Z,19.46
2018-10-18T09:33:54.674Z,19.5
2018-10-18T09:34:54.498Z,19.5
2018-10-18T09:35:54.514Z,19.46
2018-10-18T09:36:54.745Z,19.47
2018-10-18T09:37:54.608Z,19.46
2018-10-18T09:38:54.784Z,19.47
2018-10-18T09:39:54.722Z,19.48
2018-10-18T09:40:54.723Z,19.48
2018-10-18T09:41:54.691Z,19.47
2018-10-18T09:42:55.329Z,19.47
2018-10-18T09:43:54.592Z,19.48
2018-10-18T09:44:55.786Z,19.47
2018-10-18T09:45:54.968Z,19.47
2018-10-18T09:46:54.829Z,19.47
2018-10-18T09:47:54.401Z,19.47
2018-10-18T09:48:55.037Z,19.5
2018-10-18T09:49:54.565Z,19.45
2018-10-18T09:50:54.777Z,19.47
2018-10-18T09:51:54.594Z,19.5
2018-10-18T09:52:55.430Z,19.48
2018-10-18T09:53:54.387Z,19.5
2018-10-18T09:54:54.933Z,19.5
2018-10-18T09:55:55.432Z,19.5
2018-10-18T09:56:54.696Z,19.47
2018-10-18T09:57:54.746Z,19.5
2018-10-18T09:58:54.330Z,19.5
2018-10-18T09:59:54.513Z,19.5
2018-10-18T10:00:54.948Z,19.5
2018-10-18T10:01:54.320Z,19.5
2018-10-18T10:02:54.234Z,19.47
2018-10-18T10:03:54.720Z,19.47
2018-10-18T10:04:54.810Z,19.48
2018-10-18T10:05:54.568Z,19.48
2018-10-18T10:06:54.832Z,19.52
2018-10-18T10:07:54.401Z,19.48
2018-10-18T10:08:54.449Z,19.48
2018-10-18T10:09:54.666Z,19.5
2018-10-18T10:10:54.297Z,19.5
2018-10-18T10:11:54.928Z,19.5
2018-10-18T10:12:55.240Z,19.5
2018-10-18T10:13:54.593Z,19.52
2018-10-18T10:14:54.415Z,19.52
2018-10-18T10:15:54.308Z,19.5
2018-10-18T10:16:54.894Z,19.5
2018-10-18T10:17:54.457Z,19.51
2018-10-18T10:18:55.079Z,19.5
2018-10-18T10:19:54.357Z,19.52
2018-10-18T10:20:54.360Z,19.51
2018-10-18T10:21:54.645Z,19.52
2018-10-18T10:22:54.657Z,19.5
2018-10-18T10:23:54.853Z,19.51
2018-10-18T10:24:54.359Z,19.52
2018-10-18T10:25:54.401Z,19.52
2018-10-18T10:26:54.570Z,19.5
2018-10-18T10:27:54.487Z,19.5
2018-10-18T10:28:54.434Z,19.51
2018-10-18T10:29:54.688Z,19.51
2018-10-18T10:30:54.965Z,19.54
2018-10-18T10:31:54.511Z,19.52
2018-10-18T10:32:55.027Z,19.5
2018-10-18T10:33:54.374Z,19.51
2018-10-18T10:34:54.878Z,19.53
2018-10-18T10:35:54.629Z,19.51
2018-10-18T10:36:55.010Z,19.53
2018-10-18T10:37:54.431Z,19.52
2018-10-18T10:38:54.714Z,19.52
2018-10-18T10:39:54.835Z,19.52
2018-10-18T10:40:54.761Z,19.52
2018-10-18T10:41:54.491Z,19.51
2018-10-18T10:42:55.318Z,19.53
2018-10-18T10:43:54.907Z,19.54
2018-10-18T10:44:54.442Z,19.52
2018-10-18T10:45:54.870Z,19.51
2018-10-18T10:46:54.382Z,19.53
2018-10-18T10:47:54.858Z,19.5
2018-10-18T10:48:54.491Z,19.52
2018-10-18T10:49:54.659Z,19.51
2018-10-18T10:50:54.661Z,19.52
2018-10-18T10:51:55.091Z,19.53
2018-10-18T10:52:54.297Z,19.53
2018-10-18T10:53:54.808Z,19.52
2018-10-18T10:54:54.534Z,19.52
2018-10-18T10:55:54.973Z,19.51
2018-10-18T10:56:54.692Z,19.52
2018-10-18T10:57:54.958Z,19.52
2018-10-18T10:58:54.876Z,19.52
2018-10-18T10:59:54.551Z,19.52
2018-10-18T11:00:54.536Z,19.53
2018-10-18T11:01:54.824Z,19.51
2018-10-18T11:02:54.811Z,19.52
2018-10-18T11:03:54.848Z,19.52
2018-10-18T11:04:54.414Z,19.52
2018-10-18T11:05:54.777Z,19.54
2018-10-18T11:06:54.495Z,19.53
2018-10-18T11:07:54.565Z,19.55
2018-10-18T11:08:54.613Z,19.54
2018-10-18T11:09:54.604Z,19.55
2018-10-18T11:10:54.689Z,19.55
2018-10-18T11:11:55.335Z,19.55
2018-10-18T11:12:54.662Z,19.55
2018-10-18T11:13:54.637Z,19.56
2018-10-18T11:14:54.948Z,19.59
2018-10-18T11:15:54.981Z,19.58
2018-10-18T11:16:54.581Z,19.59
2018-10-18T11:17:54.686Z,19.6
2018-10-18T11:18:54.393Z,19.61
2018-10-18T11:19:54.681Z,19.61
2018-10-18T11:20:55.085Z,19.62
2018-10-18T11:21:54.582Z,19.6
2018-10-18T11:22:54.440Z,19.6
2018-10-18T11:23:54.611Z,19.59
2018-10-18T11:24:55.667Z,19.62
2018-10-18T11:25:55.059Z,19.62
2018-10-18T11:26:54.542Z,19.59
2018-10-18T11:27:54.254Z,19.61
2018-10-18T11:28:54.921Z,19.6
2018-10-18T11:29:54.996Z,19.59
2018-10-18T11:30:54.239Z,19.6
2018-10-18T11:31:55.361Z,19.59
2018-10-18T11:32:54.824Z,19.6
2018-10-18T11:33:54.441Z,19.59
2018-10-18T11:34:54.444Z,19.6
2018-10-18T11:35:54.799Z,19.59
2018-10-18T11:36:54.623Z,19.58
2018-10-18T11:37:54.997Z,19.59
2018-10-18T11:38:54.508Z,19.58
2018-10-18T11:39:54.314Z,19.56
2018-10-18T11:40:54.306Z,19.57
2018-10-18T11:41:55.075Z,19.57
2018-10-18T11:42:54.355Z,19.58
2018-10-18T11:43:54.668Z,19.58
2018-10-18T11:44:54.905Z,19.56
2018-10-18T11:45:55.070Z,19.58
2018-10-18T11:46:54.748Z,19.58
2018-10-18T11:47:54.811Z,19.58
2018-10-18T11:48:54.466Z,19.56
2018-10-18T11:49:55.037Z,19.58
2018-10-18T11:50:54.498Z,19.57
2018-10-18T11:51:55.142Z,19.58
2018-10-18T11:52:54.574Z,19.58
2018-10-18T11:53:55.057Z,19.55
2018-10-18T11:54:54.783Z,19.58
2018-10-18T11:55:54.757Z,19.57
2018-10-18T11:56:54.689Z,19.58
2018-10-18T11:57:54.390Z,19.55
2018-10-18T11:58:55.022Z,19.55
2018-10-18T11:59:54.726Z,19.54
2018-10-18T12:00:54.370Z,19.56
2018-10-18T12:01:54.701Z,19.58
2018-10-18T12:02:54.722Z,19.56
2018-10-18T12:03:54.376Z,19.57
2018-10-18T12:04:55.067Z,19.56
2018-10-18T12:05:54.350Z,19.55
2018-10-18T12:06:54.702Z,19.57
2018-10-18T12:07:55.062Z,19.56
2018-10-18T12:08:54.267Z,19.58
2018-10-18T12:09:54.400Z,19.58
2018-10-18T12:10:54.735Z,19.56
2018-10-18T12:11:54.386Z,19.56
2018-10-18T12:12:54.440Z,19.58
2018-10-18T12:13:54.679Z,19.56
2018-10-18T12:14:54.822Z,19.54
2018-10-18T12:15:54.335Z,19.56
2018-10-18T12:16:54.787Z,19.55
2018-10-18T12:17:54.321Z,19.54
2018-10-18T12:18:54.768Z,19.56
2018-10-18T12:19:54.567Z,19.54
2018-10-18T12:20:54.578Z,19.56
2018-10-18T12:21:54.432Z,19.57
2018-10-18T12:22:54.707Z,19.57
2018-10-18T12:23:54.253Z,19.56
2018-10-18T12:24:54.245Z,19.57
2018-10-18T12:25:55.091Z,19.55
2018-10-18T12:26:55.217Z,19.55
2018-10-18T12:27:54.343Z,19.55
2018-10-18T12:28:54.537Z,19.56
2018-10-18T12:29:54.346Z,19.56
2018-10-18T12:30:54.354Z,19.55
2018-10-18T12:31:54.745Z,19.56
2018-10-18T12:32:54.344Z,19.56
2018-10-18T12:33:54.673Z,19.56
2018-10-18T12:34:54.657Z,19.58
2018-10-18T12:35:54.372Z,19.56
2018-10-18T12:36:54.647Z,19.58
2018-10-18T12:37:55.046Z,19.56
2018-10-18T12:38:54.313Z,19.55
2018-10-18T12:39:54.362Z,19.56
2018-10-18T12:40:55.109Z,19.55
2018-10-18T12:41:55.339Z,19.55
2018-10-18T12:42:54.456Z,19.57
2018-10-18T12:43:55.034Z,19.56
2018-10-18T12:44:54.752Z,19.55
2018-10-18T12:45:54.356Z,19.58
2018-10-18T12:46:54.722Z,19.54
2018-10-18T12:47:54.822Z,19.56
2018-10-18T12:48:54.449Z,19.57
2018-10-18T12:49:54.703Z,19.56
2018-10-18T12:50:54.226Z,19.55
2018-10-18T12:51:54.422Z,19.56
2018-10-18T12:52:54.300Z,19.55
2018-10-18T12:53:54.612Z,19.56
2018-10-18T12:54:54.590Z,19.57
2018-10-18T12:55:54.694Z,19.55